Beryl Junction, Utah
Current Conditions -  °F | °C
As of 2:53 AM on Monday 20 Oct 2014 (Local Time) from KCDC Reporting Station
Clear Clear  
Wind Chill: 43°   Ceiling: Unl
Heat Index: 45°   Visibility: 10mi
Dew Point: 36°   Wind: 5mph
Humidity: 71%   Direction: 240°WSW
Pressure: 30.09"   Gusts: NA
Location:  38.0286°N, 113.572°W
Report Text: KCDC 200853Z AUTO 24004KT 10SM CLR 07/02 A3009 RMK AO2 SLP140 T00720022 55002 TSNO
Loading
Personal Weather Stations






























Interactive Weather Map New forecast layout! Learn more

10-Day Weather Forecast

Advertisements
Track Severe Weather on mobile